الصفحة الرئيسية
METAR-TAF:

METAR-TAF

مطار :

فسا, إيران

دائرة عرض: 28-58N, خط طول: 053-41E, ارتفاع: 1383 متر

مراقبة الطقس الحالي

تاريخ ووقت الإصدار 23 دقيقة قبل الساعة 22:00UTC
ريح 10 عقدة من الغرب
درجة الحرارة 31°درجة مئوية
الرطوبة 16%
ضغط 1010 hPa
الرؤية 10 كم أو أكثر
غيوم قليلة على ارتفاع 4000 قدم
غيوم متفرقة على ارتفاع 10000 قدم

METAR: OISF 242200Z 28010KT 9999 FEW040 SCT100 31/02 Q1010 A2983

زمن: 02:53 (22:23 UTC)


TAF: مفقودة

أرصاد الطقس والتوقعات من أكثر من 4000 مطار (تقارير الطقس للمطار METAR والتنبؤ بالطقس بالمطارTAF).

المحطات المتاحة هي النقط الصفراء والحمراء على الخريطة.

حرك المؤشر فوق النقطة لمعرفة اسم المحطة.

ثم انقر لمعرفة أرصاد وتوقعات الطقس.

لتغيير الخارطة: اضغط على الأزرار الخضراء مع رمز الصليب الأسود للتكبير. على الزر الأخضر مع شرطة للتصغير، أو على الأسهم الخضراء للخرائط المجاورة.


METAR-TAF: